sensor_id;sensor_type;location;lat;lon;timestamp;temperature;humidity
18321;DHT22;54904;54.350;18.664;2022-08-18T00:01:05;26.60;99.90
18321;DHT22;54904;54.350;18.664;2022-08-18T00:03:32;26.60;99.90
18321;DHT22;54904;54.350;18.664;2022-08-18T00:05:59;26.60;99.90
18321;DHT22;54904;54.350;18.664;2022-08-18T00:08:26;26.60;99.90
18321;DHT22;54904;54.350;18.664;2022-08-18T00:10:54;26.50;99.90
18321;DHT22;54904;54.350;18.664;2022-08-18T00:13:23;26.60;99.90
18321;DHT22;54904;54.350;18.664;2022-08-18T00:15:50;26.50;99.90
18321;DHT22;54904;54.350;18.664;2022-08-18T00:18:18;26.60;99.90
18321;DHT22;54904;54.350;18.664;2022-08-18T00:20:45;26.50;99.90
18321;DHT22;54904;54.350;18.664;2022-08-18T00:23:13;26.50;99.90
18321;DHT22;54904;54.350;18.664;2022-08-18T00:25:40;26.50;99.90
18321;DHT22;54904;54.350;18.664;2022-08-18T00:28:07;26.50;99.90
18321;DHT22;54904;54.350;18.664;2022-08-18T00:30:34;26.50;99.90
18321;DHT22;54904;54.350;18.664;2022-08-18T00:33:01;26.50;99.90
18321;DHT22;54904;54.350;18.664;2022-08-18T00:35:32;26.50;99.90
18321;DHT22;54904;54.350;18.664;2022-08-18T00:38:02;26.50;99.90
18321;DHT22;54904;54.350;18.664;2022-08-18T00:40:32;26.50;99.90
18321;DHT22;54904;54.350;18.664;2022-08-18T00:43:01;26.50;99.90
18321;DHT22;54904;54.350;18.664;2022-08-18T00:45:31;26.50;99.90
18321;DHT22;54904;54.350;18.664;2022-08-18T00:47:59;26.50;99.90
18321;DHT22;54904;54.350;18.664;2022-08-18T00:50:28;26.50;99.90
18321;DHT22;54904;54.350;18.664;2022-08-18T00:53:02;26.50;99.90
18321;DHT22;54904;54.350;18.664;2022-08-18T00:55:31;26.50;99.90
18321;DHT22;54904;54.350;18.664;2022-08-18T00:58:02;26.50;99.90
18321;DHT22;54904;54.350;18.664;2022-08-18T01:00:31;26.50;99.90
18321;DHT22;54904;54.350;18.664;2022-08-18T01:03:04;26.50;99.90
18321;DHT22;54904;54.350;18.664;2022-08-18T01:05:35;26.50;99.90
18321;DHT22;54904;54.350;18.664;2022-08-18T01:08:08;26.50;99.90
18321;DHT22;54904;54.350;18.664;2022-08-18T01:10:39;26.50;99.90
18321;DHT22;54904;54.350;18.664;2022-08-18T01:13:07;26.50;99.90
18321;DHT22;54904;54.350;18.664;2022-08-18T01:15:34;26.50;99.90
18321;DHT22;54904;54.350;18.664;2022-08-18T01:18:06;26.50;99.90
18321;DHT22;54904;54.350;18.664;2022-08-18T01:20:58;26.50;99.90
18321;DHT22;54904;54.350;18.664;2022-08-18T01:23:45;26.40;99.90
18321;DHT22;54904;54.350;18.664;2022-08-18T01:26:15;26.50;99.90
18321;DHT22;54904;54.350;18.664;2022-08-18T01:28:44;26.40;99.90
18321;DHT22;54904;54.350;18.664;2022-08-18T01:31:14;26.50;99.90
18321;DHT22;54904;54.350;18.664;2022-08-18T01:33:54;26.40;99.90
18321;DHT22;54904;54.350;18.664;2022-08-18T01:36:22;26.50;99.90
18321;DHT22;54904;54.350;18.664;2022-08-18T01:38:52;26.40;99.90
18321;DHT22;54904;54.350;18.664;2022-08-18T01:41:21;26.50;99.90
18321;DHT22;54904;54.350;18.664;2022-08-18T01:43:48;26.50;99.90
18321;DHT22;54904;54.350;18.664;2022-08-18T01:46:17;26.50;99.90
18321;DHT22;54904;54.350;18.664;2022-08-18T01:48:45;26.50;99.90
18321;DHT22;54904;54.350;18.664;2022-08-18T01:51:14;26.40;99.90
18321;DHT22;54904;54.350;18.664;2022-08-18T01:53:42;26.50;99.90
18321;DHT22;54904;54.350;18.664;2022-08-18T01:56:11;26.40;99.90
18321;DHT22;54904;54.350;18.664;2022-08-18T01:58:43;26.50;99.90
18321;DHT22;54904;54.350;18.664;2022-08-18T02:01:12;26.50;99.90
18321;DHT22;54904;54.350;18.664;2022-08-18T02:03:42;26.50;99.90
18321;DHT22;54904;54.350;18.664;2022-08-18T02:06:13;26.50;99.90
18321;DHT22;54904;54.350;18.664;2022-08-18T02:08:40;26.50;99.90
18321;DHT22;54904;54.350;18.664;2022-08-18T02:11:07;26.40;99.90
18321;DHT22;54904;54.350;18.664;2022-08-18T02:13:36;26.40;99.90
18321;DHT22;54904;54.350;18.664;2022-08-18T02:16:03;26.50;99.90
18321;DHT22;54904;54.350;18.664;2022-08-18T02:18:35;26.50;99.90
18321;DHT22;54904;54.350;18.664;2022-08-18T02:21:06;26.50;99.90
18321;DHT22;54904;54.350;18.664;2022-08-18T02:23:34;26.50;99.90
18321;DHT22;54904;54.350;18.664;2022-08-18T02:26:03;26.50;99.90
18321;DHT22;54904;54.350;18.664;2022-08-18T02:28:30;26.40;99.90
18321;DHT22;54904;54.350;18.664;2022-08-18T02:31:03;26.50;99.90
18321;DHT22;54904;54.350;18.664;2022-08-18T02:33:30;26.40;99.90
18321;DHT22;54904;54.350;18.664;2022-08-18T02:35:57;26.50;99.90
18321;DHT22;54904;54.350;18.664;2022-08-18T02:38:24;26.50;99.90
18321;DHT22;54904;54.350;18.664;2022-08-18T02:40:54;26.50;99.90
18321;DHT22;54904;54.350;18.664;2022-08-18T02:43:22;26.50;99.90
18321;DHT22;54904;54.350;18.664;2022-08-18T02:45:49;26.50;99.90
18321;DHT22;54904;54.350;18.664;2022-08-18T02:48:18;26.50;99.90
18321;DHT22;54904;54.350;18.664;2022-08-18T02:50:47;26.40;99.90
18321;DHT22;54904;54.350;18.664;2022-08-18T02:53:14;26.40;99.90
18321;DHT22;54904;54.350;18.664;2022-08-18T02:55:46;26.40;99.90
18321;DHT22;54904;54.350;18.664;2022-08-18T02:58:14;26.40;99.90
18321;DHT22;54904;54.350;18.664;2022-08-18T03:00:41;26.40;99.90
18321;DHT22;54904;54.350;18.664;2022-08-18T03:03:08;26.40;99.90
18321;DHT22;54904;54.350;18.664;2022-08-18T03:05:37;26.50;99.90
18321;DHT22;54904;54.350;18.664;2022-08-18T03:08:04;26.40;99.90
18321;DHT22;54904;54.350;18.664;2022-08-18T03:10:31;26.40;99.90
18321;DHT22;54904;54.350;18.664;2022-08-18T03:12:58;26.40;99.90
18321;DHT22;54904;54.350;18.664;2022-08-18T03:15:25;26.40;99.90
18321;DHT22;54904;54.350;18.664;2022-08-18T03:17:52;26.40;99.90
18321;DHT22;54904;54.350;18.664;2022-08-18T03:20:19;26.30;99.90
18321;DHT22;54904;54.350;18.664;2022-08-18T03:22:48;26.40;99.90
18321;DHT22;54904;54.350;18.664;2022-08-18T03:25:15;26.40;99.90
18321;DHT22;54904;54.350;18.664;2022-08-18T03:27:43;26.30;99.90
18321;DHT22;54904;54.350;18.664;2022-08-18T03:30:10;26.30;99.90
18321;DHT22;54904;54.350;18.664;2022-08-18T03:32:37;26.30;99.90
18321;DHT22;54904;54.350;18.664;2022-08-18T03:35:05;26.20;99.90
18321;DHT22;54904;54.350;18.664;2022-08-18T03:37:33;26.20;99.90
18321;DHT22;54904;54.350;18.664;2022-08-18T03:40:02;26.20;99.90
18321;DHT22;54904;54.350;18.664;2022-08-18T03:42:29;26.20;99.90
18321;DHT22;54904;54.350;18.664;2022-08-18T03:44:56;26.20;99.90
18321;DHT22;54904;54.350;18.664;2022-08-18T03:47:23;26.20;99.90
18321;DHT22;54904;54.350;18.664;2022-08-18T03:49:52;26.20;99.90
18321;DHT22;54904;54.350;18.664;2022-08-18T03:52:19;26.10;99.90
18321;DHT22;54904;54.350;18.664;2022-08-18T03:54:46;26.10;99.90
18321;DHT22;54904;54.350;18.664;2022-08-18T03:57:14;26.10;99.90
18321;DHT22;54904;54.350;18.664;2022-08-18T03:59:41;26.00;99.90
18321;DHT22;54904;54.350;18.664;2022-08-18T04:02:09;26.00;99.90
18321;DHT22;54904;54.350;18.664;2022-08-18T04:04:36;26.00;99.90
18321;DHT22;54904;54.350;18.664;2022-08-18T04:07:08;26.00;99.90
18321;DHT22;54904;54.350;18.664;2022-08-18T04:09:37;26.00;99.90
18321;DHT22;54904;54.350;18.664;2022-08-18T04:12:06;25.90;99.90
18321;DHT22;54904;54.350;18.664;2022-08-18T04:14:39;25.90;99.90
18321;DHT22;54904;54.350;18.664;2022-08-18T04:17:07;25.90;99.90
18321;DHT22;54904;54.350;18.664;2022-08-18T04:19:35;25.90;99.90
18321;DHT22;54904;54.350;18.664;2022-08-18T04:22:03;25.90;99.90
18321;DHT22;54904;54.350;18.664;2022-08-18T04:24:31;25.80;99.90
18321;DHT22;54904;54.350;18.664;2022-08-18T04:27:01;25.80;99.90
18321;DHT22;54904;54.350;18.664;2022-08-18T04:29:29;25.70;99.90
18321;DHT22;54904;54.350;18.664;2022-08-18T04:31:59;25.70;99.90
18321;DHT22;54904;54.350;18.664;2022-08-18T04:34:27;25.80;99.90
18321;DHT22;54904;54.350;18.664;2022-08-18T04:36:54;25.80;99.90
18321;DHT22;54904;54.350;18.664;2022-08-18T04:39:22;25.80;99.90
18321;DHT22;54904;54.350;18.664;2022-08-18T04:41:50;25.90;99.90
18321;DHT22;54904;54.350;18.664;2022-08-18T04:44:18;25.80;99.90
18321;DHT22;54904;54.350;18.664;2022-08-18T04:46:49;25.80;99.90
18321;DHT22;54904;54.350;18.664;2022-08-18T04:49:20;25.90;99.90
18321;DHT22;54904;54.350;18.664;2022-08-18T04:51:51;25.90;99.90
18321;DHT22;54904;54.350;18.664;2022-08-18T04:54:38;25.90;99.90
18321;DHT22;54904;54.350;18.664;2022-08-18T04:57:07;25.90;99.90
18321;DHT22;54904;54.350;18.664;2022-08-18T04:59:35;26.00;99.90
18321;DHT22;54904;54.350;18.664;2022-08-18T05:02:02;26.00;99.90
18321;DHT22;54904;54.350;18.664;2022-08-18T05:04:34;26.00;99.90
18321;DHT22;54904;54.350;18.664;2022-08-18T05:07:03;26.10;99.90
18321;DHT22;54904;54.350;18.664;2022-08-18T05:09:31;26.10;99.90
18321;DHT22;54904;54.350;18.664;2022-08-18T05:11:58;26.10;99.90
18321;DHT22;54904;54.350;18.664;2022-08-18T05:14:25;26.10;99.90
18321;DHT22;54904;54.350;18.664;2022-08-18T05:16:52;26.10;99.90
18321;DHT22;54904;54.350;18.664;2022-08-18T05:19:20;26.10;99.90
18321;DHT22;54904;54.350;18.664;2022-08-18T05:21:50;26.10;99.90
18321;DHT22;54904;54.350;18.664;2022-08-18T05:24:19;26.10;99.90
18321;DHT22;54904;54.350;18.664;2022-08-18T05:26:46;26.00;99.90
18321;DHT22;54904;54.350;18.664;2022-08-18T05:29:14;26.10;99.90
18321;DHT22;54904;54.350;18.664;2022-08-18T05:31:42;26.10;99.90
18321;DHT22;54904;54.350;18.664;2022-08-18T05:34:09;26.10;99.90
18321;DHT22;54904;54.350;18.664;2022-08-18T05:37:00;26.10;99.90
18321;DHT22;54904;54.350;18.664;2022-08-18T05:39:34;26.10;99.90
18321;DHT22;54904;54.350;18.664;2022-08-18T05:42:07;26.10;99.90
18321;DHT22;54904;54.350;18.664;2022-08-18T05:44:36;26.10;99.90
18321;DHT22;54904;54.350;18.664;2022-08-18T05:47:09;26.10;99.90
18321;DHT22;54904;54.350;18.664;2022-08-18T05:49:37;26.10;99.90
18321;DHT22;54904;54.350;18.664;2022-08-18T05:52:11;26.10;99.90
18321;DHT22;54904;54.350;18.664;2022-08-18T05:54:44;26.10;99.90
18321;DHT22;54904;54.350;18.664;2022-08-18T05:57:31;26.20;99.90
18321;DHT22;54904;54.350;18.664;2022-08-18T06:00:03;26.10;99.90
18321;DHT22;54904;54.350;18.664;2022-08-18T06:02:43;26.10;99.90
18321;DHT22;54904;54.350;18.664;2022-08-18T06:05:19;26.10;99.90
18321;DHT22;54904;54.350;18.664;2022-08-18T06:07:54;26.10;99.90
18321;DHT22;54904;54.350;18.664;2022-08-18T06:10:23;26.10;99.90
18321;DHT22;54904;54.350;18.664;2022-08-18T06:12:53;26.10;99.90
18321;DHT22;54904;54.350;18.664;2022-08-18T06:15:24;26.10;99.90
18321;DHT22;54904;54.350;18.664;2022-08-18T06:18:27;26.10;99.90
18321;DHT22;54904;54.350;18.664;2022-08-18T06:23:53;26.10;99.90
18321;DHT22;54904;54.350;18.664;2022-08-18T06:26:28;26.10;99.90
18321;DHT22;54904;54.350;18.664;2022-08-18T06:29:11;26.10;99.90
18321;DHT22;54904;54.350;18.664;2022-08-18T06:31:55;26.10;99.90
18321;DHT22;54904;54.350;18.664;2022-08-18T06:34:34;26.10;99.90
18321;DHT22;54904;54.350;18.664;2022-08-18T06:37:12;26.10;99.90
18321;DHT22;54904;54.350;18.664;2022-08-18T06:39:45;26.20;99.90
18321;DHT22;54904;54.350;18.664;2022-08-18T06:42:16;26.20;99.90
18321;DHT22;54904;54.350;18.664;2022-08-18T06:44:48;26.20;99.90
18321;DHT22;54904;54.350;18.664;2022-08-18T06:47:31;26.20;99.90
18321;DHT22;54904;54.350;18.664;2022-08-18T06:50:06;26.30;99.90
18321;DHT22;54904;54.350;18.664;2022-08-18T06:52:36;26.30;99.90
18321;DHT22;54904;54.350;18.664;2022-08-18T06:55:08;26.30;99.90
18321;DHT22;54904;54.350;18.664;2022-08-18T06:57:38;26.30;99.90
18321;DHT22;54904;54.350;18.664;2022-08-18T07:00:08;26.40;99.90
18321;DHT22;54904;54.350;18.664;2022-08-18T07:02:47;26.50;99.90
18321;DHT22;54904;54.350;18.664;2022-08-18T07:05:18;26.50;99.90
18321;DHT22;54904;54.350;18.664;2022-08-18T07:08:00;26.50;99.90
18321;DHT22;54904;54.350;18.664;2022-08-18T07:10:33;26.60;99.90
18321;DHT22;54904;54.350;18.664;2022-08-18T07:13:15;26.60;99.90
18321;DHT22;54904;54.350;18.664;2022-08-18T07:15:43;26.60;99.90
18321;DHT22;54904;54.350;18.664;2022-08-18T07:18:12;26.60;99.90
18321;DHT22;54904;54.350;18.664;2022-08-18T07:20:47;26.60;99.90
18321;DHT22;54904;54.350;18.664;2022-08-18T07:23:25;26.70;99.90
18321;DHT22;54904;54.350;18.664;2022-08-18T07:26:02;26.70;99.90
18321;DHT22;54904;54.350;18.664;2022-08-18T07:28:33;26.80;99.90
18321;DHT22;54904;54.350;18.664;2022-08-18T07:31:16;26.80;99.90
18321;DHT22;54904;54.350;18.664;2022-08-18T07:33:51;26.90;99.90
18321;DHT22;54904;54.350;18.664;2022-08-18T07:36:23;27.00;99.90
18321;DHT22;54904;54.350;18.664;2022-08-18T07:38:55;27.00;99.90
18321;DHT22;54904;54.350;18.664;2022-08-18T07:41:29;27.10;99.90
18321;DHT22;54904;54.350;18.664;2022-08-18T07:44:05;27.10;99.90
18321;DHT22;54904;54.350;18.664;2022-08-18T07:46:49;27.10;99.90
18321;DHT22;54904;54.350;18.664;2022-08-18T07:49:21;27.20;99.90
18321;DHT22;54904;54.350;18.664;2022-08-18T07:51:52;27.30;99.90
18321;DHT22;54904;54.350;18.664;2022-08-18T07:54:32;27.30;99.90
18321;DHT22;54904;54.350;18.664;2022-08-18T07:57:07;27.30;99.90
18321;DHT22;54904;54.350;18.664;2022-08-18T07:59:43;27.40;99.90
18321;DHT22;54904;54.350;18.664;2022-08-18T08:02:22;27.50;99.90
18321;DHT22;54904;54.350;18.664;2022-08-18T08:05:03;27.50;99.90
18321;DHT22;54904;54.350;18.664;2022-08-18T08:07:39;27.60;99.90
18321;DHT22;54904;54.350;18.664;2022-08-18T08:10:27;27.60;99.90
18321;DHT22;54904;54.350;18.664;2022-08-18T08:13:07;27.70;99.90
18321;DHT22;54904;54.350;18.664;2022-08-18T08:15:47;27.70;99.90
18321;DHT22;54904;54.350;18.664;2022-08-18T08:18:19;27.80;99.90
18321;DHT22;54904;54.350;18.664;2022-08-18T08:20:53;27.80;99.90
18321;DHT22;54904;54.350;18.664;2022-08-18T08:23:24;27.90;99.90
18321;DHT22;54904;54.350;18.664;2022-08-18T08:26:02;28.00;99.90
18321;DHT22;54904;54.350;18.664;2022-08-18T08:28:42;28.00;99.90
18321;DHT22;54904;54.350;18.664;2022-08-18T08:31:23;28.10;99.90
18321;DHT22;54904;54.350;18.664;2022-08-18T08:33:55;28.10;99.90
18321;DHT22;54904;54.350;18.664;2022-08-18T08:36:27;28.10;99.90
18321;DHT22;54904;54.350;18.664;2022-08-18T08:38:59;28.20;99.90
18321;DHT22;54904;54.350;18.664;2022-08-18T08:41:33;28.30;99.90
18321;DHT22;54904;54.350;18.664;2022-08-18T08:44:07;28.30;99.90
18321;DHT22;54904;54.350;18.664;2022-08-18T08:46:42;28.30;99.90
18321;DHT22;54904;54.350;18.664;2022-08-18T08:49:27;28.40;99.90
18321;DHT22;54904;54.350;18.664;2022-08-18T08:52:00;28.40;99.90
18321;DHT22;54904;54.350;18.664;2022-08-18T08:54:34;28.60;99.90
18321;DHT22;54904;54.350;18.664;2022-08-18T08:57:04;28.60;99.90
18321;DHT22;54904;54.350;18.664;2022-08-18T08:59:33;28.70;99.90
18321;DHT22;54904;54.350;18.664;2022-08-18T09:05:06;28.90;99.90
18321;DHT22;54904;54.350;18.664;2022-08-18T09:10:44;29.10;99.90
18321;DHT22;54904;54.350;18.664;2022-08-18T09:13:33;29.20;99.90
18321;DHT22;54904;54.350;18.664;2022-08-18T09:16:23;29.30;99.50
18321;DHT22;54904;54.350;18.664;2022-08-18T09:19:15;29.30;99.10
18321;DHT22;54904;54.350;18.664;2022-08-18T09:21:50;29.40;98.80
18321;DHT22;54904;54.350;18.664;2022-08-18T09:24:22;29.40;98.90
18321;DHT22;54904;54.350;18.664;2022-08-18T09:26:53;29.50;98.80
18321;DHT22;54904;54.350;18.664;2022-08-18T09:29:48;29.50;98.20
18321;DHT22;54904;54.350;18.664;2022-08-18T09:32:49;29.50;98.20
18321;DHT22;54904;54.350;18.664;2022-08-18T09:38:18;29.70;98.20
18321;DHT22;54904;54.350;18.664;2022-08-18T09:41:07;29.70;97.80
18321;DHT22;54904;54.350;18.664;2022-08-18T09:43:56;29.80;97.90
18321;DHT22;54904;54.350;18.664;2022-08-18T09:46:52;29.80;97.70
18321;DHT22;54904;54.350;18.664;2022-08-18T09:49:41;29.90;97.60
18321;DHT22;54904;54.350;18.664;2022-08-18T09:55:41;30.00;97.20
18321;DHT22;54904;54.350;18.664;2022-08-18T09:58:19;30.10;97.00
18321;DHT22;54904;54.350;18.664;2022-08-18T10:01:38;30.10;96.90
18321;DHT22;54904;54.350;18.664;2022-08-18T10:04:27;30.10;96.90
18321;DHT22;54904;54.350;18.664;2022-08-18T10:07:13;30.30;97.00
18321;DHT22;54904;54.350;18.664;2022-08-18T10:09:51;30.40;97.10
18321;DHT22;54904;54.350;18.664;2022-08-18T10:12:39;30.40;96.70
18321;DHT22;54904;54.350;18.664;2022-08-18T10:15:26;30.50;96.70
18321;DHT22;54904;54.350;18.664;2022-08-18T10:20:52;30.50;95.80
18321;DHT22;54904;54.350;18.664;2022-08-18T10:23:42;30.40;95.60
18321;DHT22;54904;54.350;18.664;2022-08-18T10:32:44;30.60;95.70
18321;DHT22;54904;54.350;18.664;2022-08-18T10:38:41;30.70;95.60
18321;DHT22;54904;54.350;18.664;2022-08-18T10:41:19;30.80;95.40
18321;DHT22;54904;54.350;18.664;2022-08-18T10:43:50;30.90;95.00
18321;DHT22;54904;54.350;18.664;2022-08-18T10:46:21;31.00;94.50
18321;DHT22;54904;54.350;18.664;2022-08-18T10:49:15;31.00;94.20
18321;DHT22;54904;54.350;18.664;2022-08-18T10:51:52;31.00;94.20
18321;DHT22;54904;54.350;18.664;2022-08-18T10:54:30;31.10;94.20
18321;DHT22;54904;54.350;18.664;2022-08-18T10:57:07;31.10;94.20
18321;DHT22;54904;54.350;18.664;2022-08-18T10:59:41;31.20;94.00
18321;DHT22;54904;54.350;18.664;2022-08-18T11:02:30;31.30;94.00
18321;DHT22;54904;54.350;18.664;2022-08-18T11:05:06;31.30;94.40
18321;DHT22;54904;54.350;18.664;2022-08-18T11:07:36;31.40;94.40
18321;DHT22;54904;54.350;18.664;2022-08-18T11:10:16;31.40;94.60
18321;DHT22;54904;54.350;18.664;2022-08-18T11:13:01;31.40;95.40
18321;DHT22;54904;54.350;18.664;2022-08-18T11:15:37;31.50;95.20
18321;DHT22;54904;54.350;18.664;2022-08-18T11:18:23;31.60;95.30
18321;DHT22;54904;54.350;18.664;2022-08-18T11:24:10;31.80;95.50
18321;DHT22;54904;54.350;18.664;2022-08-18T11:26:39;31.80;95.90
18321;DHT22;54904;54.350;18.664;2022-08-18T11:29:17;31.80;95.60
18321;DHT22;54904;54.350;18.664;2022-08-18T11:31:45;31.90;95.70
18321;DHT22;54904;54.350;18.664;2022-08-18T11:34:14;32.00;95.60
18321;DHT22;54904;54.350;18.664;2022-08-18T11:36:42;31.90;95.50
18321;DHT22;54904;54.350;18.664;2022-08-18T11:39:11;32.00;95.50
18321;DHT22;54904;54.350;18.664;2022-08-18T11:41:44;32.00;95.00
18321;DHT22;54904;54.350;18.664;2022-08-18T11:44:17;31.90;94.80
18321;DHT22;54904;54.350;18.664;2022-08-18T11:46:45;31.80;94.60
18321;DHT22;54904;54.350;18.664;2022-08-18T11:49:15;31.80;94.50
18321;DHT22;54904;54.350;18.664;2022-08-18T11:51:57;31.70;94.50
18321;DHT22;54904;54.350;18.664;2022-08-18T11:54:35;31.70;94.50
18321;DHT22;54904;54.350;18.664;2022-08-18T11:57:39;31.60;94.30
18321;DHT22;54904;54.350;18.664;2022-08-18T12:00:35;31.50;94.10
18321;DHT22;54904;54.350;18.664;2022-08-18T12:03:04;31.50;93.90
18321;DHT22;54904;54.350;18.664;2022-08-18T12:05:44;31.50;93.80
18321;DHT22;54904;54.350;18.664;2022-08-18T12:08:20;31.50;94.20
18321;DHT22;54904;54.350;18.664;2022-08-18T12:11:04;31.60;94.10
18321;DHT22;54904;54.350;18.664;2022-08-18T12:13:32;31.60;94.20
18321;DHT22;54904;54.350;18.664;2022-08-18T12:16:15;31.60;94.00
18321;DHT22;54904;54.350;18.664;2022-08-18T12:18:44;31.70;94.00
18321;DHT22;54904;54.350;18.664;2022-08-18T12:21:11;31.70;93.90
18321;DHT22;54904;54.350;18.664;2022-08-18T12:23:40;31.60;93.80
18321;DHT22;54904;54.350;18.664;2022-08-18T12:26:09;31.60;93.70
18321;DHT22;54904;54.350;18.664;2022-08-18T12:28:36;31.50;93.50
18321;DHT22;54904;54.350;18.664;2022-08-18T12:31:05;31.40;93.40
18321;DHT22;54904;54.350;18.664;2022-08-18T12:33:33;31.40;93.50
18321;DHT22;54904;54.350;18.664;2022-08-18T12:36:00;31.40;93.60
18321;DHT22;54904;54.350;18.664;2022-08-18T12:38:27;31.40;93.70
18321;DHT22;54904;54.350;18.664;2022-08-18T12:40:54;31.40;93.60
18321;DHT22;54904;54.350;18.664;2022-08-18T12:43:23;31.40;93.60
18321;DHT22;54904;54.350;18.664;2022-08-18T12:45:50;31.40;93.50
18321;DHT22;54904;54.350;18.664;2022-08-18T12:48:17;31.40;93.50
18321;DHT22;54904;54.350;18.664;2022-08-18T12:50:45;31.40;93.40
18321;DHT22;54904;54.350;18.664;2022-08-18T12:53:12;31.40;93.50
18321;DHT22;54904;54.350;18.664;2022-08-18T12:55:41;31.40;93.90
18321;DHT22;54904;54.350;18.664;2022-08-18T12:58:09;31.40;93.50
18321;DHT22;54904;54.350;18.664;2022-08-18T13:00:38;31.40;93.40
18321;DHT22;54904;54.350;18.664;2022-08-18T13:03:06;31.40;92.60
18321;DHT22;54904;54.350;18.664;2022-08-18T13:05:33;31.40;92.70
18321;DHT22;54904;54.350;18.664;2022-08-18T13:08:04;31.40;92.70
18321;DHT22;54904;54.350;18.664;2022-08-18T13:10:31;31.50;92.50
18321;DHT22;54904;54.350;18.664;2022-08-18T13:12:59;31.50;92.30
18321;DHT22;54904;54.350;18.664;2022-08-18T13:15:26;31.50;92.20
18321;DHT22;54904;54.350;18.664;2022-08-18T13:17:54;31.50;92.10
18321;DHT22;54904;54.350;18.664;2022-08-18T13:20:21;31.60;92.20
18321;DHT22;54904;54.350;18.664;2022-08-18T13:22:49;31.60;92.10
18321;DHT22;54904;54.350;18.664;2022-08-18T13:25:16;31.60;91.80
18321;DHT22;54904;54.350;18.664;2022-08-18T13:27:43;31.70;91.60
18321;DHT22;54904;54.350;18.664;2022-08-18T13:30:13;31.70;91.40
18321;DHT22;54904;54.350;18.664;2022-08-18T13:32:40;31.60;90.90
18321;DHT22;54904;54.350;18.664;2022-08-18T13:35:10;31.60;90.90
18321;DHT22;54904;54.350;18.664;2022-08-18T13:37:37;31.50;90.80
18321;DHT22;54904;54.350;18.664;2022-08-18T13:40:07;31.50;90.90
18321;DHT22;54904;54.350;18.664;2022-08-18T13:42:41;31.50;91.00
18321;DHT22;54904;54.350;18.664;2022-08-18T13:45:11;31.50;91.10
18321;DHT22;54904;54.350;18.664;2022-08-18T13:47:39;31.40;91.00
18321;DHT22;54904;54.350;18.664;2022-08-18T13:50:09;31.40;90.90
18321;DHT22;54904;54.350;18.664;2022-08-18T13:52:39;31.30;90.90
18321;DHT22;54904;54.350;18.664;2022-08-18T13:55:08;31.30;90.90
18321;DHT22;54904;54.350;18.664;2022-08-18T13:57:36;31.20;90.90
18321;DHT22;54904;54.350;18.664;2022-08-18T14:00:06;31.20;91.10
18321;DHT22;54904;54.350;18.664;2022-08-18T14:02:36;31.20;91.20
18321;DHT22;54904;54.350;18.664;2022-08-18T14:05:05;31.10;91.30
18321;DHT22;54904;54.350;18.664;2022-08-18T14:07:35;31.10;91.40
18321;DHT22;54904;54.350;18.664;2022-08-18T14:10:03;31.10;91.50
18321;DHT22;54904;54.350;18.664;2022-08-18T14:12:34;31.10;91.60
18321;DHT22;54904;54.350;18.664;2022-08-18T14:15:04;31.00;91.50
18321;DHT22;54904;54.350;18.664;2022-08-18T14:17:33;31.00;91.50
18321;DHT22;54904;54.350;18.664;2022-08-18T14:20:00;31.00;91.50
18321;DHT22;54904;54.350;18.664;2022-08-18T14:22:46;31.00;91.60
18321;DHT22;54904;54.350;18.664;2022-08-18T14:25:31;30.90;91.60
18321;DHT22;54904;54.350;18.664;2022-08-18T14:28:15;30.90;91.70
18321;DHT22;54904;54.350;18.664;2022-08-18T14:30:43;31.00;91.90
18321;DHT22;54904;54.350;18.664;2022-08-18T14:33:10;30.90;92.30
18321;DHT22;54904;54.350;18.664;2022-08-18T14:35:40;30.90;92.10
18321;DHT22;54904;54.350;18.664;2022-08-18T14:38:08;30.80;92.10
18321;DHT22;54904;54.350;18.664;2022-08-18T14:40:37;30.80;92.20
18321;DHT22;54904;54.350;18.664;2022-08-18T14:43:05;30.70;92.10
18321;DHT22;54904;54.350;18.664;2022-08-18T14:45:33;30.70;92.20
18321;DHT22;54904;54.350;18.664;2022-08-18T14:48:00;30.70;92.20
18321;DHT22;54904;54.350;18.664;2022-08-18T14:50:27;30.60;92.30
18321;DHT22;54904;54.350;18.664;2022-08-18T14:52:55;30.60;92.30
18321;DHT22;54904;54.350;18.664;2022-08-18T14:55:23;30.50;92.40
18321;DHT22;54904;54.350;18.664;2022-08-18T14:57:50;30.50;92.50
18321;DHT22;54904;54.350;18.664;2022-08-18T15:00:18;30.50;92.50
18321;DHT22;54904;54.350;18.664;2022-08-18T15:02:46;30.40;92.60
18321;DHT22;54904;54.350;18.664;2022-08-18T15:05:14;30.40;92.70
18321;DHT22;54904;54.350;18.664;2022-08-18T15:07:41;30.40;92.80
18321;DHT22;54904;54.350;18.664;2022-08-18T15:10:10;30.40;92.80
18321;DHT22;54904;54.350;18.664;2022-08-18T15:12:39;30.40;92.70
18321;DHT22;54904;54.350;18.664;2022-08-18T15:15:08;30.40;92.80
18321;DHT22;54904;54.350;18.664;2022-08-18T15:17:37;30.40;92.80
18321;DHT22;54904;54.350;18.664;2022-08-18T15:20:06;30.30;92.70
18321;DHT22;54904;54.350;18.664;2022-08-18T15:22:37;30.40;92.80
18321;DHT22;54904;54.350;18.664;2022-08-18T15:25:34;30.40;92.80
18321;DHT22;54904;54.350;18.664;2022-08-18T15:28:14;30.30;92.70
18321;DHT22;54904;54.350;18.664;2022-08-18T15:30:43;30.30;92.80
18321;DHT22;54904;54.350;18.664;2022-08-18T15:33:10;30.30;92.80
18321;DHT22;54904;54.350;18.664;2022-08-18T15:35:39;30.30;92.80
18321;DHT22;54904;54.350;18.664;2022-08-18T15:38:06;30.20;92.80
18321;DHT22;54904;54.350;18.664;2022-08-18T15:40:33;30.20;92.80
18321;DHT22;54904;54.350;18.664;2022-08-18T15:43:05;30.20;92.80
18321;DHT22;54904;54.350;18.664;2022-08-18T15:45:36;30.10;92.80
18321;DHT22;54904;54.350;18.664;2022-08-18T15:48:04;30.20;92.90
18321;DHT22;54904;54.350;18.664;2022-08-18T15:50:31;30.10;92.90
18321;DHT22;54904;54.350;18.664;2022-08-18T15:53:01;30.10;93.00
18321;DHT22;54904;54.350;18.664;2022-08-18T15:55:31;30.10;93.00
18321;DHT22;54904;54.350;18.664;2022-08-18T15:57:59;30.10;93.10
18321;DHT22;54904;54.350;18.664;2022-08-18T16:00:28;30.10;93.10
18321;DHT22;54904;54.350;18.664;2022-08-18T16:03:01;30.10;93.10
18321;DHT22;54904;54.350;18.664;2022-08-18T16:05:31;30.00;93.10
18321;DHT22;54904;54.350;18.664;2022-08-18T16:08:00;30.00;93.20
18321;DHT22;54904;54.350;18.664;2022-08-18T16:10:30;29.90;93.30
18321;DHT22;54904;54.350;18.664;2022-08-18T16:12:58;29.90;93.30
18321;DHT22;54904;54.350;18.664;2022-08-18T16:15:26;29.90;93.50
18321;DHT22;54904;54.350;18.664;2022-08-18T16:17:55;29.90;93.90